EKKA

Karup Airport

Karup, Denmark
TAF EKKA 182016Z 1821/1918 30008KT 9999 FEW025 TEMPO 1822/1907 4000 BR BKN008 TEMPO 1912/1917 30012G22KT
Issued Valid From Valid To
Jul-18 @ 20:16 UTC
(2 hours ago)
Jul-18 @ 21:00 UTC
(an hour ago)
Jul-19 @ 18:00 UTC
(in 20 hours)
Jul-18 @ 21:00 to Jul-19 @ 18:00
TAF EKKA 182016Z 1821/1918 30008KT 9999 FEW025
Wind Visibility Clouds
300° at 8 knots 10,000+ meters
  • Few at 2,500' AGL
Temporary Jul-18 @ 22:00 to Jul-19 @ 07:00
TEMPO 1822/1907 4000 BR BKN008
Visibility Clouds Conditions
4,007 meters
  • Broken at 800' AGL
  • Mist
Temporary Jul-19 @ 12:00 to Jul-19 @ 17:00
TEMPO 1912/1917 30012G22KT
Wind
300° at 12 knots
 Gusting to 22 knots
TAF EKKA 182016Z 1821/1918 30008KT 9999 FEW025 TEMPO 1822/1907 4000 BR BKN008 TEMPO 1912/1917 30012G22KT
Issued Jul-18 @ 20:16 UTC
(2 hours ago)
Valid From Jul-18 @ 21:00 UTC
(an hour ago)
Valid To Jul-19 @ 18:00 UTC
(in 20 hours)
Jul-18 @ 21:00 - Jul-19 @ 18:00
Wind Visibility
300° at 8 knots 10,000+ meters
Clouds
  • Few at 2,500' AGL
Temporary Jul-18 @ 22:00 - Jul-19 @ 07:00
Clouds
  • Broken at 800' AGL
Conditions
  • Mist
Temporary Jul-19 @ 12:00 - Jul-19 @ 17:00
Wind
300° at 12 knots
 Gusting to 22 knots